Terminal Aerodrome Forecast
Issued by NWS Wakefield, VA

Home | Current Version | Previous Version | Text Only | Print | Product List | Glossary On
Versions: 1 2 3 4 5 6 7 8 9 10 11 12 13 14 15 16
000
FTUS41 KAKQ 252326
TAFRIC
TAF
KRIC 252326Z 2600/2624 06005KT 4SM -RA BR OVC005
      TEMPO 2600/2603 2SM -RA BR OVC003
     FM260700 04009KT 3SM -RA BR OVC004
     FM261300 02007KT P6SM OVC015
     FM261500 02008KT P6SM OVC040=

USA.gov is the U.S. government's official web portal to all federal, state and local government web resources and services.